Aérodrome :
LOGIN :

S'inscrire | Disclaimer

   EN    FR    IT 

 










Légende :    VFR   VFR Marginal   IFR   IFR Intensif   IFR Très Intensif
Visi : 
Plafond : 
>= 8 km
>= 3000ft
5 à 8 km
1000 à 3000 ft
1500m à 5 km
500 à 1000 ft
800 à 1500m
200 à 500 ft
< 800m
< 200 ft
Symboles :   Orages  Brouillard  Fortes neiges  Fortes précipitations  Vent > 20 kt
SIGMETs :   Divers  Orages  Givrage  Turbulence  Onde Orograph.  Cendres Volcan.







- Altitude de l'aérodrome : 72 ft
- Code IATA : UDE


EHVK - Volkel Airbase

DERNIER METAR :
  • 191025Z AUTO 27009KT 240V310 9999 FEW033 BKN043 BKN048 08/04 Q1017 BLU

METARs EXPIRÉS :
  • 190955Z AUTO 27007KT 230V320 9999 FEW035 BKN052 07/04 Q1017 BLU
  • 190925Z AUTO 26007KT 240V300 9999 FEW034 07/04 Q1017 BLU
  • 190855Z AUTO 25007KT 230V320 9999 SCT032 SCT037 BKN063 06/04 Q1017 BLU
  • 190825Z AUTO 25007KT 9999 FEW033 BKN370 05/04 Q1017 BLU
  • 190805Z AUTO 26008KT 230V290 9999 FEW074 BKN082 BKN096 05/04 Q1017 BLU
  • 190755Z AUTO 28006KT 9999 -RA SCT025 BKN028 BKN039 05/03 Q1017 BLU

TAF TAF EHVK
Valide du 19 à 10h jusqu'au 19 à 22h UTC


190924Z 1910/1922 27006KT 9999 SCT030
PROB40
TEMPO 1910/1916 29012G22KT FEW018 SCT020CB BKN030
Pas de NOTAMs connus pour ce terrain.



MET'MAP, la Météo Aéronautique d'un coup d'oeil ! - Copyright ORBIFLY Décembre 2007 - Disclaimer

ORBIFLY MET'MAP TEAM :

Programmation & Développement : Alexandra Zaïnal
Conception & Développement : Baudouin d'Aumeries
Co-Programmation & Développement : Marc-Olivier Méhu
Soutien technique & logistique : Manuel Goepfert

Contact : metmap@orbifly.com




SOURCES & CREDITS :

   NOAA